Time;durP1;ratioP1;P1;durP2;ratioP2;P2;SDS_P1;SDS_P2;PMS_P1;PMS_P2;Temp;Humidity;BMP_temperature;BMP_pressure;BME280_temperature;BME280_humidity;BME280_pressure;Samples;Min_cycle;Max_cycle;Signal;HPM_P1;HPM_P2
2022/09/30 00:00:06;;;;;;;9.70;8.60;;;;;;;4.79;100.00;100719.31;5029943;28;20091;-60
2022/09/30 00:02:31;;;;;;;9.90;8.90;;;;;;;4.76;100.00;100729.44;5029062;28;20028;-60
2022/09/30 00:04:56;;;;;;;9.70;8.80;;;;;;;4.75;100.00;100724.22;5030162;28;20030;-60
2022/09/30 00:07:22;;;;;;;10.00;9.00;;;;;;;4.73;100.00;100738.66;5029827;28;20076;-60
2022/09/30 00:09:48;;;;;;;10.37;9.27;;;;;;;4.74;100.00;100735.25;5029215;28;20024;-60
2022/09/30 00:12:13;;;;;;;9.53;8.63;;;;;;;4.70;100.00;100734.22;5029470;28;20029;-60
2022/09/30 00:14:39;;;;;;;11.50;9.83;;;;;;;4.67;100.00;100739.19;5028884;28;20033;-60
2022/09/30 00:17:04;;;;;;;12.07;10.87;;;;;;;4.65;100.00;100743.34;5029514;28;20104;-60
2022/09/30 00:19:29;;;;;;;10.33;9.23;;;;;;;4.62;100.00;100746.66;5028732;28;20112;-61
2022/09/30 00:21:55;;;;;;;11.10;10.10;;;;;;;4.59;100.00;100751.59;5029810;28;20029;-60
2022/09/30 00:24:20;;;;;;;8.60;7.70;;;;;;;4.58;100.00;100744.72;5029686;28;20017;-60
2022/09/30 00:26:45;;;;;;;11.67;10.67;;;;;;;4.53;100.00;100746.13;5028830;28;20026;-60
2022/09/30 00:29:11;;;;;;;11.20;10.20;;;;;;;4.50;100.00;100744.28;5029303;28;20112;-60
2022/09/30 00:31:37;;;;;;;13.77;12.43;;;;;;;4.49;100.00;100741.63;5028350;28;20454;-60
2022/09/30 00:34:06;;;;;;;14.13;12.73;;;;;;;4.44;100.00;100746.50;5029453;28;20480;-60
2022/09/30 00:36:43;;;;;;;15.00;13.50;;;;;;;4.43;100.00;100737.03;5028976;28;20029;-61
2022/09/30 00:39:28;;;;;;;14.17;12.87;;;;;;;4.44;100.00;100736.25;5028513;28;20029;-61
2022/09/30 00:41:59;;;;;;;14.20;12.87;;;;;;;4.43;100.00;100739.59;5028799;28;20025;-60
2022/09/30 00:44:43;;;;;;;13.17;11.97;;;;;;;4.46;100.00;100744.91;5028846;28;20516;-60
2022/09/30 00:47:47;;;;;;;14.53;12.73;;;;;;;4.44;100.00;100741.38;5028463;28;20033;-60
2022/09/30 00:50:21;;;;;;;13.80;12.40;;;;;;;4.44;100.00;100731.13;5028964;28;20028;-61
2022/09/30 00:52:56;;;;;;;14.07;12.83;;;;;;;4.41;100.00;100736.06;5028436;28;20053;-60
2022/09/30 00:55:56;;;;;;;13.93;12.73;;;;;;;4.36;100.00;100743.50;5028869;28;20029;-60
2022/09/30 00:58:34;;;;;;;14.90;13.40;;;;;;;4.36;100.00;100742.63;5028186;28;20078;-62
2022/09/30 01:01:01;;;;;;;14.77;13.07;;;;;;;4.32;100.00;100742.47;5028759;28;20405;-62
2022/09/30 01:03:35;;;;;;;15.27;12.87;;;;;;;4.31;100.00;100748.41;5022334;28;20297;-62
2022/09/30 01:06:01;;;;;;;14.17;12.87;;;;;;;4.29;100.00;100747.41;5025860;28;20103;-62
2022/09/30 01:08:29;;;;;;;13.40;12.17;;;;;;;4.26;100.00;100744.69;5028514;28;20115;-62
2022/09/30 01:10:54;;;;;;;14.33;12.80;;;;;;;4.22;100.00;100745.31;5027991;28;20595;-62
2022/09/30 01:13:23;;;;;;;15.93;13.13;;;;;;;4.20;100.00;100745.22;5028802;28;20041;-61
2022/09/30 01:16:05;;;;;;;13.63;12.00;;;;;;;4.19;100.00;100746.00;5028711;28;20064;-62
2022/09/30 01:18:42;;;;;;;12.87;11.67;;;;;;;4.16;100.00;100739.81;5028557;28;20040;-62
2022/09/30 01:21:32;;;;;;;13.60;12.27;;;;;;;4.12;100.00;100748.16;5028208;28;20390;-63
2022/09/30 01:24:36;;;;;;;13.40;10.63;;;;;;;4.06;100.00;100748.69;5027697;28;20032;-62
2022/09/30 01:27:08;;;;;;;12.90;11.60;;;;;;;4.09;100.00;100753.97;5027476;28;20036;-62
2022/09/30 01:29:59;;;;;;;13.83;11.40;;;;;;;4.05;100.00;100742.66;5027881;28;20075;-62
2022/09/30 01:32:36;;;;;;;12.80;11.52;;;;;;;4.07;100.00;100750.44;5027391;28;20473;-62
2022/09/30 01:35:23;;;;;;;12.10;10.83;;;;;;;4.06;100.00;100741.00;5028227;28;20028;-62
2022/09/30 01:38:13;;;;;;;13.27;11.93;;;;;;;4.06;100.00;100744.44;5027964;28;20029;-62
2022/09/30 01:40:52;;;;;;;13.90;11.50;;;;;;;4.06;100.00;100741.00;5028354;28;20035;-62
2022/09/30 01:43:30;;;;;;;12.00;10.90;;;;;;;4.06;100.00;100739.31;5027791;28;20051;-62
2022/09/30 01:46:16;;;;;;;12.27;11.07;;;;;;;4.05;100.00;100740.09;5027492;28;20124;-63
2022/09/30 01:49:30;;;;;;;13.47;10.90;;;;;;;4.06;100.00;100749.56;5028205;28;20481;-62
2022/09/30 01:52:12;;;;;;;11.70;10.60;;;;;;;4.04;100.00;100746.03;4992871;28;20114;-62
2022/09/30 01:54:58;;;;;;;13.47;10.83;;;;;;;4.01;100.00;100743.28;5028300;28;20437;-62
2022/09/30 01:57:23;;;;;;;12.10;10.90;;;;;;;3.99;100.00;100744.00;5027383;28;20037;-62
2022/09/30 02:00:02;;;;;;;11.53;10.27;;;;;;;3.96;100.00;100744.69;5027774;28;20083;-62
2022/09/30 02:02:31;;;;;;;12.53;11.20;;;;;;;3.94;100.00;100748.88;5027804;28;20075;-62
2022/09/30 02:05:09;;;;;;;11.90;10.87;;;;;;;3.92;100.00;100755.59;5028253;28;20511;-62
2022/09/30 02:07:59;;;;;;;12.53;11.40;;;;;;;3.90;100.00;100757.19;5028164;28;20033;-62
2022/09/30 02:10:31;;;;;;;12.60;11.18;;;;;;;3.91;100.00;100748.66;5026899;28;20108;-62
2022/09/30 02:13:03;;;;;;;11.53;10.33;;;;;;;3.89;100.00;100753.72;5027703;28;20545;-62
2022/09/30 02:15:38;;;;;;;11.90;10.43;;;;;;;3.88;100.00;100753.63;5027956;28;20064;-62
2022/09/30 02:18:12;;;;;;;13.17;10.97;;;;;;;3.82;100.00;100755.03;5027416;28;20032;-63
2022/09/30 02:20:41;;;;;;;11.83;10.40;;;;;;;3.79;100.00;100754.88;5027039;28;20029;-62
2022/09/30 02:23:14;;;;;;;11.90;10.70;;;;;;;3.75;100.00;100757.16;5027156;28;20025;-62
2022/09/30 02:26:04;;;;;;;12.10;10.83;;;;;;;3.74;100.00;100748.59;5027472;28;20037;-62
2022/09/30 02:28:30;;;;;;;11.43;10.33;;;;;;;3.71;100.00;100761.22;5027436;28;20025;-62
2022/09/30 02:30:59;;;;;;;11.87;10.77;;;;;;;3.69;100.00;100757.66;5027561;28;20420;-62
2022/09/30 02:33:40;;;;;;;11.67;10.53;;;;;;;3.67;100.00;100760.16;5009647;28;20456;-62
2022/09/30 02:36:34;;;;;;;11.70;10.50;;;;;;;3.65;100.00;100759.16;5026816;28;20143;-62
2022/09/30 02:39:05;;;;;;;13.53;11.90;;;;;;;3.65;100.00;100755.75;5015748;28;20113;-62
2022/09/30 02:41:41;;;;;;;14.23;12.73;;;;;;;3.64;100.00;100751.41;5027064;28;20048;-62
2022/09/30 02:44:07;;;;;;;14.23;12.43;;;;;;;3.64;100.00;100749.72;4994396;28;20054;-62
2022/09/30 02:46:59;;;;;;;13.60;12.33;;;;;;;3.63;100.00;100757.31;4987950;28;20033;-62
2022/09/30 02:49:38;;;;;;;14.53;13.03;;;;;;;3.58;100.00;100752.81;4987207;28;20025;-62
2022/09/30 02:52:23;;;;;;;14.23;12.03;;;;;;;3.54;100.00;100748.31;4986060;28;20026;-62
2022/09/30 02:54:49;;;;;;;13.07;11.77;;;;;;;3.54;100.00;100756.00;4987726;28;20390;-62
2022/09/30 02:57:38;;;;;;;13.03;10.83;;;;;;;3.52;100.00;100755.03;4987687;28;20023;-62
2022/09/30 03:00:05;;;;;;;13.67;10.63;;;;;;;3.51;100.00;100754.94;4987591;28;20030;-62
2022/09/30 03:02:30;;;;;;;12.83;11.47;;;;;;;3.48;100.00;100748.81;4987509;28;20029;-62
2022/09/30 03:04:55;;;;;;;12.53;11.20;;;;;;;3.46;100.00;100752.97;4988153;28;20382;-62
2022/09/30 03:07:21;;;;;;;15.13;11.10;;;;;;;3.43;100.00;100752.78;4987654;28;20030;-62
2022/09/30 03:09:46;;;;;;;13.17;11.63;;;;;;;3.41;100.00;100754.38;4987908;28;20113;-62
2022/09/30 03:12:49;;;;;;;12.83;11.53;;;;;;;3.40;100.00;100759.41;4987423;28;20038;-61
2022/09/30 03:15:29;;;;;;;13.87;12.37;;;;;;;3.40;100.00;100761.97;4987512;28;20513;-62
2022/09/30 03:18:28;;;;;;;13.57;12.27;;;;;;;3.39;100.00;100761.09;4987401;28;20069;-62
2022/09/30 03:21:02;;;;;;;15.87;13.80;;;;;;;3.39;100.00;100762.75;4987543;28;20093;-62
2022/09/30 03:23:45;;;;;;;14.43;13.03;;;;;;;3.39;100.00;100760.19;4987586;28;20438;-58
2022/09/30 03:26:35;;;;;;;14.80;13.40;;;;;;;3.38;100.00;100755.88;4986231;28;20030;-60
2022/09/30 03:29:30;;;;;;;16.27;12.97;;;;;;;3.38;100.00;100763.56;4987444;28;20096;-60
2022/09/30 03:32:09;;;;;;;15.57;13.67;;;;;;;3.38;100.00;100776.38;4987667;28;20031;-60
2022/09/30 03:34:48;;;;;;;15.53;13.90;;;;;;;3.38;100.00;100776.38;4987541;28;20076;-60
2022/09/30 03:37:37;;;;;;;16.77;15.17;;;;;;;3.37;100.00;100772.91;4986427;28;20026;-60
2022/09/30 03:40:09;;;;;;;17.57;15.77;;;;;;;3.35;100.00;100767.69;4987423;28;20069;-60
2022/09/30 03:42:40;;;;;;;17.25;15.57;;;;;;;3.36;100.00;100774.56;4987397;28;20088;-60
2022/09/30 03:45:19;;;;;;;16.80;15.07;;;;;;;3.33;100.00;100771.84;5026028;28;20493;-60
2022/09/30 03:47:49;;;;;;;16.90;15.20;;;;;;;3.33;100.00;100764.16;5026150;28;20091;-60
2022/09/30 03:50:18;;;;;;;17.27;15.47;;;;;;;3.30;100.00;100765.63;5028516;28;20025;-60
2022/09/30 03:52:43;;;;;;;19.37;17.37;;;;;;;3.29;100.00;100772.44;5030107;28;20141;-60
2022/09/30 03:55:10;;;;;;;21.13;17.23;;;;;;;3.31;100.00;100775.97;5029854;28;20144;-60
2022/09/30 03:57:36;;;;;;;19.03;16.63;;;;;;;3.34;100.00;100782.97;5029521;28;20021;-60
2022/09/30 04:00:04;;;;;;;18.30;16.50;;;;;;;3.35;100.00;100782.16;5029053;28;20036;-60
2022/09/30 04:02:29;;;;;;;19.37;17.27;;;;;;;3.39;100.00;100788.38;5029622;28;20068;-60
2022/09/30 04:04:55;;;;;;;19.43;17.53;;;;;;;3.39;100.00;100784.13;5029836;28;20124;-60
2022/09/30 04:07:20;;;;;;;19.73;17.73;;;;;;;3.38;100.00;100789.16;5029599;28;20033;-60
2022/09/30 04:09:45;;;;;;;18.10;16.20;;;;;;;3.35;100.00;100795.88;5029057;28;20052;-60
2022/09/30 04:12:11;;;;;;;17.50;15.63;;;;;;;3.34;100.00;100800.91;5029389;28;20371;-60
2022/09/30 04:14:36;;;;;;;18.03;16.33;;;;;;;3.33;100.00;100788.88;5029466;28;20030;-60
2022/09/30 04:17:03;;;;;;;19.40;15.93;;;;;;;3.34;100.00;100806.03;5028952;28;20060;-60
2022/09/30 04:19:28;;;;;;;18.90;17.10;;;;;;;3.35;100.00;100818.03;5029294;28;20382;-60
2022/09/30 04:21:54;;;;;;;18.47;16.57;;;;;;;3.37;100.00;100821.59;5029682;28;20021;-60
2022/09/30 04:24:21;;;;;;;18.83;17.00;;;;;;;3.39;100.00;100829.34;5029736;28;20028;-60
2022/09/30 04:26:46;;;;;;;18.43;16.70;;;;;;;3.39;100.00;100837.03;5028660;28;20550;-60
2022/09/30 04:29:12;;;;;;;18.03;16.23;;;;;;;3.40;100.00;100846.53;5029367;28;20116;-60
2022/09/30 04:31:37;;;;;;;19.10;17.13;;;;;;;3.42;100.00;100844.94;5028961;28;20381;-60
2022/09/30 04:34:03;;;;;;;17.67;15.90;;;;;;;3.40;100.00;100843.97;5029458;28;20068;-62
2022/09/30 04:36:28;;;;;;;19.03;17.13;;;;;;;3.41;100.00;100848.28;5011251;28;20029;-63
2022/09/30 04:38:53;;;;;;;20.63;17.47;;;;;;;3.41;100.00;100845.72;5029370;28;20025;-62
2022/09/30 04:41:19;;;;;;;18.37;15.50;;;;;;;3.39;100.00;100834.47;5028964;28;20033;-63
2022/09/30 04:43:46;;;;;;;19.67;17.67;;;;;;;3.37;100.00;100842.06;5028621;28;20053;-61
2022/09/30 04:46:16;;;;;;;17.83;16.13;;;;;;;3.32;100.00;100834.13;5029020;28;20210;-60
2022/09/30 04:48:44;;;;;;;18.03;16.27;;;;;;;3.26;100.00;100833.72;5028669;28;20418;-60
2022/09/30 04:51:10;;;;;;;19.97;17.40;;;;;;;3.24;100.00;100836.19;5028841;28;20040;-60
2022/09/30 04:53:36;;;;;;;19.00;17.10;;;;;;;3.23;100.00;100847.25;5029050;28;20021;-60
2022/09/30 04:56:01;;;;;;;19.00;16.90;;;;;;;3.23;100.00;100848.91;5028227;28;20267;-60
2022/09/30 04:58:27;;;;;;;19.50;17.57;;;;;;;3.23;100.00;100851.47;5010732;28;20056;-60
2022/09/30 05:01:07;;;;;;;18.63;16.63;;;;;;;3.22;100.00;100852.28;5027287;28;20080;-60
2022/09/30 05:03:34;;;;;;;17.33;15.63;;;;;;;3.20;100.00;100864.09;5028770;28;20030;-60
2022/09/30 05:06:00;;;;;;;19.10;17.20;;;;;;;3.17;100.00;100863.88;5028940;28;20083;-60
2022/09/30 05:08:25;;;;;;;19.67;17.80;;;;;;;3.16;100.00;100857.91;5028296;28;20473;-60
2022/09/30 05:11:00;;;;;;;20.37;18.23;;;;;;;3.17;100.00;100866.44;5027568;28;20083;-60
2022/09/30 05:13:30;;;;;;;18.70;16.80;;;;;;;3.16;100.00;100872.38;5020393;28;20030;-60
2022/09/30 05:15:55;;;;;;;18.93;17.13;;;;;;;3.17;100.00;100874.13;5005315;28;20120;-59
2022/09/30 05:18:21;;;;;;;19.10;17.27;;;;;;;3.17;100.00;100866.44;5028413;28;20127;-60
2022/09/30 05:20:51;;;;;;;21.47;18.83;;;;;;;3.16;100.00;100864.69;5028086;28;20070;-60
2022/09/30 05:23:18;;;;;;;21.57;19.37;;;;;;;3.15;100.00;100860.38;5028055;28;20413;-60
2022/09/30 05:25:44;;;;;;;21.30;19.10;;;;;;;3.13;100.00;100867.94;5026689;28;20289;-60
2022/09/30 05:28:09;;;;;;;20.93;17.97;;;;;;;3.10;100.00;100884.00;5026444;28;20017;-60
2022/09/30 05:30:35;;;;;;;19.70;17.70;;;;;;;3.10;100.00;100878.88;5025931;28;20493;-60
2022/09/30 05:33:00;;;;;;;20.63;18.20;;;;;;;3.08;100.00;100875.34;5026852;28;20057;-62
2022/09/30 05:35:25;;;;;;;18.70;16.90;;;;;;;3.08;100.00;100875.34;5027420;28;20033;-60
2022/09/30 05:37:50;;;;;;;19.33;17.17;;;;;;;3.07;100.00;100871.03;5025478;28;20049;-60
2022/09/30 05:40:16;;;;;;;19.97;18.00;;;;;;;3.08;100.00;100882.13;5026959;28;20104;-60
2022/09/30 05:42:42;;;;;;;19.50;17.50;;;;;;;3.07;100.00;100888.03;5027980;28;20193;-60
2022/09/30 05:45:07;;;;;;;19.17;17.20;;;;;;;3.05;100.00;100892.19;5027941;28;20049;-60
2022/09/30 05:47:33;;;;;;;20.93;18.73;;;;;;;3.04;100.00;100898.09;5027580;28;20056;-60
2022/09/30 05:49:58;;;;;;;20.40;18.03;;;;;;;3.03;100.00;100896.31;5028219;28;20049;-60
2022/09/30 05:52:24;;;;;;;21.93;18.00;;;;;;;3.03;100.00;100907.44;5027581;28;20079;-60
2022/09/30 05:54:49;;;;;;;19.90;17.80;;;;;;;3.05;100.00;100905.88;5028184;28;20421;-60
2022/09/30 05:57:16;;;;;;;20.47;18.33;;;;;;;3.04;100.00;100911.78;5026923;28;20026;-60
2022/09/30 05:59:41;;;;;;;19.90;17.90;;;;;;;3.05;100.00;100916.13;5027926;28;20473;-60
2022/09/30 06:02:08;;;;;;;20.07;18.13;;;;;;;3.07;100.00;100914.56;5009672;28;20033;-60
2022/09/30 06:04:33;;;;;;;20.47;18.33;;;;;;;3.11;100.00;100926.75;5009765;28;20463;-60
2022/09/30 06:06:59;;;;;;;20.43;18.33;;;;;;;3.12;100.00;100918.28;5027613;28;20017;-60
2022/09/30 06:09:24;;;;;;;19.87;17.87;;;;;;;3.14;100.00;100925.16;5027099;28;20029;-60
2022/09/30 06:11:49;;;;;;;20.07;17.97;;;;;;;3.17;100.00;100936.50;5027033;28;20032;-60
2022/09/30 06:14:18;;;;;;;18.40;16.63;;;;;;;3.19;100.00;100928.91;5027153;28;20036;-60
2022/09/30 06:16:44;;;;;;;19.13;17.13;;;;;;;3.21;100.00;100937.59;5027478;28;20040;-60
2022/09/30 06:19:09;;;;;;;18.67;16.87;;;;;;;3.22;100.00;100931.69;5027331;28;20033;-60
2022/09/30 06:21:34;;;;;;;19.43;17.43;;;;;;;3.26;100.00;100936.19;5008976;28;20029;-60
2022/09/30 06:24:00;;;;;;;19.90;17.90;;;;;;;3.26;100.00;100933.63;5027580;28;20026;-60
2022/09/30 06:26:25;;;;;;;20.67;18.57;;;;;;;3.28;100.00;100939.75;5027456;28;20025;-60
2022/09/30 06:28:50;;;;;;;20.13;18.03;;;;;;;3.30;100.00;100940.72;5027192;28;20485;-60
2022/09/30 06:31:16;;;;;;;20.77;18.63;;;;;;;3.34;100.00;100940.16;5027275;28;20037;-60
2022/09/30 06:33:42;;;;;;;20.17;18.10;;;;;;;3.41;100.00;100948.19;5027154;28;20155;-60
2022/09/30 06:36:07;;;;;;;20.77;18.00;;;;;;;3.46;100.00;100949.38;5027130;28;20473;-58
2022/09/30 06:38:36;;;;;;;21.70;19.50;;;;;;;3.50;100.00;100953.03;5026925;28;20090;-60
2022/09/30 06:41:02;;;;;;;21.57;19.20;;;;;;;3.56;100.00;100945.72;5027357;28;20022;-60
2022/09/30 06:43:28;;;;;;;22.30;20.00;;;;;;;3.62;100.00;100940.97;5026904;28;20092;-60
2022/09/30 06:45:53;;;;;;;21.23;19.13;;;;;;;3.67;100.00;100948.97;5026899;28;20052;-60
2022/09/30 06:48:19;;;;;;;23.37;20.87;;;;;;;3.72;100.00;100945.00;5026651;28;20059;-60
2022/09/30 06:50:45;;;;;;;21.70;19.37;;;;;;;3.78;100.00;100937.66;5027256;28;20033;-60
2022/09/30 06:53:12;;;;;;;22.10;19.97;;;;;;;3.83;100.00;100938.84;5026724;28;20029;-61
2022/09/30 06:55:38;;;;;;;27.37;21.30;;;;;;;3.89;100.00;100930.63;5027040;28;20087;-60
2022/09/30 06:58:07;;;;;;;23.57;21.17;;;;;;;3.95;100.00;100932.69;5027115;28;20044;-60
2022/09/30 07:00:32;;;;;;;22.77;20.37;;;;;;;4.01;100.00;100938.19;5027160;28;20029;-60
2022/09/30 07:02:58;;;;;;;24.87;21.80;;;;;;;4.07;100.00;100936.00;5026339;28;20025;-60
2022/09/30 07:05:25;;;;;;;27.53;23.90;;;;;;;4.17;100.00;100942.56;5027364;28;20204;-60
2022/09/30 07:07:51;;;;;;;25.57;23.00;;;;;;;4.28;100.00;100935.50;5027121;28;20428;-60
2022/09/30 07:10:17;;;;;;;28.30;25.30;;;;;;;4.41;100.00;100941.34;5027005;28;20037;-60
2022/09/30 07:12:43;;;;;;;29.63;26.43;;;;;;;4.51;100.00;100936.00;5026736;28;20144;-60
2022/09/30 07:15:08;;;;;;;30.90;27.70;;;;;;;4.61;100.00;100941.63;5026931;28;20096;-60
2022/09/30 07:17:34;;;;;;;33.10;29.70;;;;;;;4.75;100.00;100935.63;5009020;28;20040;-60
2022/09/30 07:20:00;;;;;;;36.73;32.53;;;;;;;4.88;100.00;100944.91;5026992;28;20386;-60
2022/09/30 07:22:33;;;;;;;37.83;31.90;;;;;;;5.00;100.00;100937.00;5026877;28;20041;-60
2022/09/30 07:24:59;;;;;;;45.70;38.70;;;;;;;5.27;100.00;100936.78;5028675;28;20033;-60
2022/09/30 07:27:26;;;;;;;49.87;43.60;;;;;;;5.74;100.00;100935.81;5030599;28;20124;-60
2022/09/30 07:29:52;;;;;;;46.07;40.87;;;;;;;6.12;100.00;100939.56;5030478;28;20092;-60
2022/09/30 07:32:18;;;;;;;43.20;38.80;;;;;;;6.71;100.00;100936.47;5029854;28;20124;-60
2022/09/30 07:34:44;;;;;;;38.85;34.95;;;;;;;7.39;100.00;100937.97;5030846;28;20025;-60
2022/09/30 07:37:12;;;;;;;33.17;29.98;;;;;;;8.17;100.00;100946.59;5030094;28;20036;-61
2022/09/30 07:39:38;;;;;;;28.52;25.80;;;;;;;8.95;100.00;100948.06;5030186;28;20025;-60
2022/09/30 07:42:04;;;;;;;23.52;21.35;;;;;;;9.57;100.00;100941.84;5029977;28;20032;-60
2022/09/30 07:44:30;;;;;;;20.15;18.05;;;;;;;10.01;100.00;100952.06;5029989;28;20053;-61
2022/09/30 07:46:56;;;;;;;19.50;17.58;;;;;;;10.56;100.00;100947.06;5029657;28;20103;-61
2022/09/30 07:49:24;;;;;;;19.55;17.65;;;;;;;10.87;100.00;100946.31;5012423;28;20029;-60
2022/09/30 07:51:52;;;;;;;17.75;16.23;;;;;;;11.28;100.00;100954.53;5029787;28;20471;-61
2022/09/30 07:54:21;;;;;;;17.15;15.38;;;;;;;11.74;100.00;100938.59;5030407;28;20041;-61
2022/09/30 07:56:48;;;;;;;17.80;16.00;;;;;;;12.08;100.00;100941.25;5030401;28;20497;-61
2022/09/30 07:59:13;;;;;;;16.60;14.90;;;;;;;12.41;100.00;100944.72;5030310;28;20420;-60
2022/09/30 08:01:39;;;;;;;15.98;14.35;;;;;;;12.70;100.00;100948.94;5029870;28;20029;-61
2022/09/30 08:04:07;;;;;;;16.50;14.98;;;;;;;12.88;100.00;100953.69;5030102;28;20022;-61
2022/09/30 08:06:36;;;;;;;17.42;15.02;;;;;;;13.06;100.00;100939.41;5029779;28;20021;-62
2022/09/30 08:09:03;;;;;;;17.98;16.13;;;;;;;13.20;98.17;100948.38;5030192;28;20143;-61
2022/09/30 08:11:32;;;;;;;16.63;14.93;;;;;;;13.55;97.83;100941.34;5029200;28;20352;-62
2022/09/30 08:13:57;;;;;;;17.17;15.50;;;;;;;13.19;95.00;100949.22;5029980;28;20036;-62
2022/09/30 08:16:24;;;;;;;16.00;14.00;;;;;;;13.27;95.36;100941.59;5029691;28;20120;-61
2022/09/30 08:18:58;;;;;;;14.18;12.85;;;;;;;12.96;92.78;100946.09;5029102;28;20075;-61
2022/09/30 08:21:24;;;;;;;14.00;12.70;;;;;;;13.29;95.95;100944.25;5029475;28;20057;-61
2022/09/30 08:23:50;;;;;;;13.05;11.85;;;;;;;13.49;92.17;100947.25;5029310;28;20393;-61
2022/09/30 08:26:16;;;;;;;13.60;12.43;;;;;;;13.76;90.72;100940.91;5029054;28;20029;-61
2022/09/30 08:28:45;;;;;;;13.98;12.48;;;;;;;13.82;90.69;100940.16;5029400;28;20048;-61
2022/09/30 08:31:13;;;;;;;13.38;12.07;;;;;;;13.71;90.14;100944.28;5029241;28;20037;-61
2022/09/30 08:33:39;;;;;;;14.68;12.30;;;;;;;13.92;91.33;100947.31;5029642;28;20025;-61
2022/09/30 08:36:14;;;;;;;15.55;13.95;;;;;;;13.90;90.38;100948.13;5029359;28;20032;-61
2022/09/30 08:38:40;;;;;;;15.02;13.63;;;;;;;13.72;89.16;100951.25;5028999;28;20026;-61
2022/09/30 08:41:36;;;;;;;15.35;13.98;;;;;;;13.61;89.44;100948.41;5029739;28;20424;-61
2022/09/30 08:44:25;;;;;;;16.02;14.48;;;;;;;13.75;88.59;100946.09;5029084;28;20444;-62
2022/09/30 08:47:03;;;;;;;15.25;13.85;;;;;;;13.40;89.60;100944.47;5028743;28;20036;-61
2022/09/30 08:49:34;;;;;;;17.15;15.55;;;;;;;13.47;90.10;100945.47;5028329;28;20033;-61
2022/09/30 08:52:01;;;;;;;16.38;14.82;;;;;;;13.75;89.71;100948.69;5029138;28;20029;-61
2022/09/30 08:54:32;;;;;;;14.63;13.32;;;;;;;13.63;89.43;100959.75;5029133;28;20053;-62
2022/09/30 08:57:00;;;;;;;14.20;12.93;;;;;;;13.66;89.09;100958.09;5028606;28;20496;-61
2022/09/30 08:59:39;;;;;;;13.50;12.20;;;;;;;13.77;89.95;100970.44;5028795;28;20029;-61
2022/09/30 09:02:17;;;;;;;14.40;12.93;;;;;;;13.87;90.45;100964.56;5028749;28;20025;-61
2022/09/30 09:04:43;;;;;;;12.85;11.65;;;;;;;13.98;90.32;100956.09;5029180;28;20099;-61
2022/09/30 09:07:11;;;;;;;12.95;11.60;;;;;;;14.10;91.62;100956.34;5029282;28;20889;-61
2022/09/30 09:09:50;;;;;;;12.07;10.98;;;;;;;14.23;89.37;100951.38;5028313;28;20021;-61
2022/09/30 09:12:46;;;;;;;12.50;11.38;;;;;;;14.19;90.89;100944.34;5028912;28;20048;-61
2022/09/30 09:15:57;;;;;;;11.73;10.57;;;;;;;14.13;90.91;100932.97;5028165;28;20063;-61
2022/09/30 09:18:50;;;;;;;11.88;10.77;;;;;;;13.99;90.86;100944.84;5008699;28;20044;-61
2022/09/30 09:21:21;;;;;;;11.07;10.00;;;;;;;14.07;91.99;100953.66;5019977;28;20474;-62
2022/09/30 09:23:50;;;;;;;12.05;11.00;;;;;;;14.04;92.15;100951.00;5028495;28;20029;-61
2022/09/30 09:26:16;;;;;;;11.60;9.38;;;;;;;14.09;96.01;100946.75;5028036;28;20025;-61
2022/09/30 09:28:50;;;;;;;11.07;9.98;;;;;;;14.11;94.91;100942.47;5028625;28;20021;-61
2022/09/30 09:31:18;;;;;;;11.00;9.57;;;;;;;14.11;94.04;100942.47;5028179;28;20363;-61
2022/09/30 09:33:44;;;;;;;10.40;9.27;;;;;;;14.01;93.29;100948.34;5028253;28;20045;-61
2022/09/30 09:36:31;;;;;;;10.50;9.40;;;;;;;13.93;94.23;100964.72;5029183;28;20025;-62
2022/09/30 09:39:05;;;;;;;11.13;9.88;;;;;;;13.99;95.53;100968.28;5028226;28;20045;-61
2022/09/30 09:41:47;;;;;;;11.10;9.98;;;;;;;14.04;96.20;100971.84;5028259;28;20453;-62
2022/09/30 09:44:31;;;;;;;10.85;9.77;;;;;;;13.89;94.75;100952.47;5027612;28;20127;-61
2022/09/30 09:47:04;;;;;;;12.82;10.38;;;;;;;13.71;93.22;100957.31;5027553;28;20029;-61
2022/09/30 09:49:37;;;;;;;10.25;9.35;;;;;;;13.69;95.99;100957.25;5027315;28;20030;-61
2022/09/30 09:52:11;;;;;;;10.60;9.50;;;;;;;13.68;97.22;100959.00;5027821;28;20033;-61
2022/09/30 09:54:40;;;;;;;11.40;10.30;;;;;;;13.60;96.44;100957.94;5028268;28;20032;-62
2022/09/30 09:57:08;;;;;;;11.38;10.13;;;;;;;13.54;97.52;100955.22;5027989;28;20026;-62
2022/09/30 09:59:34;;;;;;;10.05;8.93;;;;;;;13.58;99.34;100946.63;5028197;28;20033;-61
2022/09/30 10:02:00;;;;;;;9.38;8.43;;;;;;;13.60;99.26;100942.31;5027324;28;20036;-62
2022/09/30 10:04:29;;;;;;;9.85;8.02;;;;;;;13.63;100.00;100946.72;5027436;28;20245;-61
2022/09/30 10:06:59;;;;;;;8.05;7.25;;;;;;;13.62;97.02;100938.03;5028052;28;20025;-61
2022/09/30 10:09:36;;;;;;;8.93;7.68;;;;;;;13.64;97.65;100938.06;5027859;28;20029;-62
2022/09/30 10:12:24;;;;;;;9.50;7.18;;;;;;;13.70;98.21;100938.19;5027857;28;20025;-61
2022/09/30 10:14:58;;;;;;;8.18;6.80;;;;;;;13.77;98.47;100940.09;5026938;28;20033;-62
2022/09/30 10:17:35;;;;;;;7.90;7.10;;;;;;;13.80;94.97;100942.75;5027489;28;20345;-61
2022/09/30 10:20:16;;;;;;;7.30;6.60;;;;;;;13.88;94.99;100950.72;5027630;28;20095;-61
2022/09/30 10:22:41;;;;;;;8.83;7.83;;;;;;;14.01;95.28;100945.75;5027239;28;20100;-62
2022/09/30 10:25:27;;;;;;;7.38;6.70;;;;;;;14.09;92.32;100954.59;5027241;28;20040;-61
2022/09/30 10:27:59;;;;;;;6.88;6.10;;;;;;;14.06;92.44;100949.31;5027508;28;20033;-61
2022/09/30 10:30:40;;;;;;;;;;;;;;;14.19;92.20;100949.56;5028078;28;20141;-62
2022/09/30 10:33:30;;;;;;;6.50;5.32;;;;;;;14.33;90.78;100953.28;5027047;28;20308;-61
2022/09/30 10:36:04;;;;;;;6.45;5.32;;;;;;;14.47;91.90;100955.25;5003686;28;20033;-62
2022/09/30 10:38:33;;;;;;;5.95;5.43;;;;;;;14.58;89.52;100953.72;5027255;28;20424;-62
2022/09/30 10:40:59;;;;;;;5.65;5.15;;;;;;;14.79;91.29;100952.31;5027324;28;20604;-62
2022/09/30 10:43:36;;;;;;;6.57;6.07;;;;;;;14.86;87.65;100954.22;5026335;28;20049;-62
2022/09/30 10:46:03;;;;;;;7.80;5.93;;;;;;;15.01;87.00;100952.69;5027143;28;20029;-62
2022/09/30 10:48:32;;;;;;;6.28;5.68;;;;;;;15.00;85.69;100943.97;5026798;28;20026;-62
2022/09/30 10:50:58;;;;;;;5.47;4.82;;;;;;;15.18;87.44;100954.69;5027022;28;20021;-62
2022/09/30 10:53:25;;;;;;;5.38;4.57;;;;;;;15.25;83.63;100946.94;5026483;28;20040;-62
2022/09/30 10:55:55;;;;;;;5.13;4.68;;;;;;;15.44;83.80;100954.16;5026998;28;20104;-61
2022/09/30 10:58:42;;;;;;;5.25;4.75;;;;;;;15.45;82.05;100954.19;5027544;28;20111;-62
2022/09/30 11:01:20;;;;;;;4.10;3.70;;;;;;;15.68;83.84;100958.84;5012961;28;20032;-62
2022/09/30 11:04:07;;;;;;;5.60;3.60;;;;;;;15.84;80.88;100951.19;5031067;28;20195;-62
2022/09/30 11:06:37;;;;;;;4.00;3.60;;;;;;;15.56;79.81;100951.72;5030697;28;20022;-62
2022/09/30 11:09:24;;;;;;;4.95;3.00;;;;;;;15.72;80.42;100949.31;5031040;28;20021;-61
2022/09/30 11:11:59;;;;;;;3.30;3.00;;;;;;;15.73;78.23;100938.00;5031232;28;20383;-61
2022/09/30 11:14:54;;;;;;;3.63;3.35;;;;;;;15.69;78.92;100944.94;5030570;28;20413;-62
2022/09/30 11:17:30;;;;;;;4.00;2.92;;;;;;;15.70;79.77;100937.97;5030495;28;20029;-61
2022/09/30 11:20:10;;;;;;;2.92;2.35;;;;;;;15.67;79.38;100948.41;5030536;28;20068;-62
2022/09/30 11:22:56;;;;;;;2.30;2.10;;;;;;;15.52;77.61;100946.44;5030652;28;20021;-62
2022/09/30 11:25:46;;;;;;;2.42;1.60;;;;;;;15.29;77.67;100952.25;5030052;28;20021;-62
2022/09/30 11:28:39;;;;;;;2.35;1.58;;;;;;;15.12;79.90;100940.69;5030162;28;20014;-62
2022/09/30 11:31:10;;;;;;;2.03;1.70;;;;;;;15.20;80.85;100942.56;5012801;28;20079;-62
2022/09/30 11:34:01;;;;;;;1.10;1.00;;;;;;;15.41;80.87;100936.75;5016746;28;20041;-62